Time;durP1;ratioP1;P1;durP2;ratioP2;P2;SDS_P1;SDS_P2;PMS_P1;PMS_P2;Temp;Humidity;BMP_temperature;BMP_pressure;BME280_temperature;BME280_humidity;BME280_pressure;Samples;Min_cycle;Max_cycle;Signal;HPM_P1;HPM_P2
2024/03/10 00:00:47;;;;;;;15.98;12.32;;;;;;;7.57;100.00;97494.44;4980823;28;20367;-65
2024/03/10 00:03:12;;;;;;;17.88;13.05;;;;;;;7.46;100.00;97479.19;4975049;28;20724;-63
2024/03/10 00:05:40;;;;;;;15.43;12.43;;;;;;;7.50;100.00;97481.34;4995558;28;20038;-66
2024/03/10 00:08:08;;;;;;;17.15;12.75;;;;;;;7.47;100.00;97463.53;4975835;28;20101;-65
2024/03/10 00:10:37;;;;;;;16.70;12.55;;;;;;;7.39;100.00;97478.16;4964943;28;20136;-68
2024/03/10 00:13:04;;;;;;;16.73;12.57;;;;;;;7.32;100.00;97460.69;4977327;28;20060;-67
2024/03/10 00:15:33;;;;;;;17.02;13.07;;;;;;;7.29;100.00;97465.34;4963442;28;20432;-65
2024/03/10 00:18:00;;;;;;;17.08;12.10;;;;;;;7.08;100.00;97426.91;4984439;28;20041;-65
2024/03/10 00:20:29;;;;;;;16.45;12.43;;;;;;;7.25;100.00;97444.16;4980845;28;20053;-67
2024/03/10 00:22:54;;;;;;;16.98;12.50;;;;;;;7.29;100.00;97455.00;4986388;28;20044;-65
2024/03/10 00:25:20;;;;;;;18.50;12.85;;;;;;;7.40;100.00;97452.16;4978405;28;20033;-66
2024/03/10 00:27:45;;;;;;;15.30;11.30;;;;;;;7.20;100.00;97455.91;4981041;28;20775;-65
2024/03/10 00:30:13;;;;;;;16.15;12.43;;;;;;;7.23;100.00;97450.47;4994900;28;20042;-64
2024/03/10 00:32:41;;;;;;;17.40;12.75;;;;;;;7.24;100.00;97454.66;4969858;28;20042;-68
2024/03/10 00:35:07;;;;;;;17.80;13.68;;;;;;;7.26;100.00;97450.13;4969276;28;20046;-68
2024/03/10 00:37:33;;;;;;;19.67;14.55;;;;;;;7.26;100.00;97453.53;4961665;28;20041;-70
2024/03/10 00:39:58;;;;;;;18.92;13.52;;;;;;;7.31;100.00;97451.28;4985301;28;20041;-66
2024/03/10 00:42:26;;;;;;;19.90;13.65;;;;;;;7.30;100.00;97448.84;4994389;28;20054;-70
2024/03/10 00:44:57;;;;;;;17.85;13.48;;;;;;;7.32;100.00;97454.72;4977277;28;20117;-67
2024/03/10 00:47:22;;;;;;;19.73;14.00;;;;;;;7.37;100.00;97449.88;4980227;28;20077;-66
2024/03/10 00:49:49;;;;;;;16.48;12.57;;;;;;;7.18;100.00;97399.19;4980597;28;20205;-63
2024/03/10 00:52:15;;;;;;;15.80;12.57;;;;;;;7.53;100.00;97443.19;4961805;28;20045;-65
2024/03/10 00:54:40;;;;;;;16.48;12.55;;;;;;;7.55;100.00;97439.47;4980426;28;20030;-66
2024/03/10 00:57:05;;;;;;;17.08;13.15;;;;;;;7.57;100.00;97431.56;4994045;28;20519;-62
2024/03/10 00:59:33;;;;;;;17.02;12.85;;;;;;;7.56;100.00;97415.22;4980242;28;20105;-64
2024/03/10 01:01:59;;;;;;;16.23;12.73;;;;;;;7.60;100.00;97413.16;4969215;28;20129;-66
2024/03/10 01:04:25;;;;;;;15.68;12.38;;;;;;;7.56;100.00;97420.41;4985894;28;20036;-67
2024/03/10 01:06:53;;;;;;;16.10;11.77;;;;;;;7.53;100.00;97414.72;4976507;28;20605;-65
2024/03/10 01:09:18;;;;;;;15.18;10.95;;;;;;;7.49;100.00;97407.28;4962762;28;20119;-67
2024/03/10 01:11:53;;;;;;;14.95;10.50;;;;;;;7.32;100.00;97400.41;4969983;28;20057;-68
2024/03/10 01:14:18;;;;;;;13.60;10.32;;;;;;;7.39;100.00;97410.94;4971110;28;20080;-66
2024/03/10 01:16:48;;;;;;;14.93;10.75;;;;;;;7.06;100.00;97365.06;5000721;28;20215;-67
2024/03/10 01:19:16;;;;;;;14.83;10.97;;;;;;;7.22;100.00;97400.50;4963848;28;20073;-66
2024/03/10 01:21:46;;;;;;;13.65;10.80;;;;;;;7.30;100.00;97408.31;4982455;28;20034;-68
2024/03/10 01:24:12;;;;;;;14.13;10.43;;;;;;;7.24;100.00;97383.06;4977014;28;20042;-66
2024/03/10 01:26:39;;;;;;;12.45;9.63;;;;;;;7.29;100.00;97380.81;4977087;28;20030;-67
2024/03/10 01:29:08;;;;;;;13.75;9.77;;;;;;;7.28;100.00;97380.97;4998139;28;20113;-68
2024/03/10 01:31:36;;;;;;;14.15;10.18;;;;;;;7.26;100.00;97378.53;4971683;28;20041;-66
2024/03/10 01:34:02;;;;;;;14.50;10.23;;;;;;;7.16;100.00;97383.03;4993099;28;20042;-68
2024/03/10 01:36:27;;;;;;;13.55;10.77;;;;;;;7.15;100.00;97375.41;4965866;28;20030;-67
2024/03/10 01:38:52;;;;;;;15.73;11.98;;;;;;;7.16;100.00;97367.50;4964577;28;20046;-68
2024/03/10 01:41:20;;;;;;;15.57;11.73;;;;;;;7.31;100.00;97365.16;4991146;28;20050;-66
2024/03/10 01:43:47;;;;;;;16.92;12.48;;;;;;;6.99;100.00;97327.03;4962868;28;20042;-68
2024/03/10 01:46:15;;;;;;;18.23;13.00;;;;;;;7.09;100.00;97312.22;4986199;28;20053;-64
2024/03/10 01:48:41;;;;;;;17.05;13.15;;;;;;;7.13;100.00;97309.16;4970357;28;20058;-64
2024/03/10 01:51:07;;;;;;;17.67;13.20;;;;;;;7.36;100.00;97339.66;4987737;28;20146;-69
2024/03/10 01:53:34;;;;;;;16.05;12.55;;;;;;;7.27;100.00;97330.25;4976391;28;20429;-64
2024/03/10 01:56:03;;;;;;;16.08;12.70;;;;;;;6.95;100.00;97274.03;4961368;28;20037;-64
2024/03/10 01:58:31;;;;;;;18.23;13.63;;;;;;;7.26;100.00;97313.91;4969355;28;20415;-66
2024/03/10 02:00:58;;;;;;;15.73;12.38;;;;;;;7.13;100.00;97322.09;4957385;28;20049;-67
2024/03/10 02:03:24;;;;;;;16.38;12.02;;;;;;;7.04;100.00;97298.94;4978510;28;20703;-68
2024/03/10 02:05:51;;;;;;;14.23;11.20;;;;;;;7.02;100.00;97300.88;4975409;28;20544;-66
2024/03/10 02:08:17;;;;;;;15.63;12.45;;;;;;;6.93;100.00;97292.28;4970058;28;20046;-66
2024/03/10 02:10:48;;;;;;;18.42;13.07;;;;;;;6.88;100.00;97285.00;4976332;28;20114;-66
2024/03/10 02:13:18;;;;;;;18.17;13.50;;;;;;;6.99;100.00;97278.75;4964406;28;20108;-63
2024/03/10 02:15:47;;;;;;;16.25;12.40;;;;;;;7.02;100.00;97281.00;4972011;28;20038;-65
2024/03/10 02:18:13;;;;;;;19.13;14.05;;;;;;;6.80;100.00;97216.97;4979747;28;20496;-66
2024/03/10 02:20:38;;;;;;;17.58;13.20;;;;;;;7.01;100.00;97258.72;4977979;28;20038;-63
2024/03/10 02:23:07;;;;;;;15.23;11.82;;;;;;;7.06;100.00;97251.31;4978459;28;20037;-66
2024/03/10 02:25:41;;;;;;;16.05;12.65;;;;;;;6.79;100.00;97198.06;4986914;28;20038;-66
2024/03/10 02:28:10;;;;;;;17.33;12.82;;;;;;;7.00;100.00;97233.84;4958050;28;20141;-66
2024/03/10 02:30:43;;;;;;;16.70;12.63;;;;;;;7.00;100.00;97225.28;4984547;28;20077;-66
2024/03/10 02:47:14;;;;;;;16.02;11.30;;;;;;;6.74;100.00;97158.97;4978166;28;20048;-64
2024/03/10 02:49:42;;;;;;;17.38;12.93;;;;;;;6.79;100.00;97156.75;4981551;28;20120;-66
2024/03/10 02:52:08;;;;;;;14.18;10.98;;;;;;;6.72;100.00;97141.03;4962971;28;20043;-66
2024/03/10 02:54:37;;;;;;;18.15;13.10;;;;;;;6.82;100.00;97134.94;4953311;28;20072;-65
2024/03/10 02:57:05;;;;;;;18.65;12.85;;;;;;;6.85;100.00;97125.09;4965540;28;20076;-67
2024/03/10 02:59:30;;;;;;;16.60;12.10;;;;;;;6.83;100.00;97127.03;4984109;28;20115;-65
2024/03/10 03:01:58;;;;;;;17.00;12.63;;;;;;;6.85;100.00;97108.78;4962926;28;20041;-66
2024/03/10 03:04:28;;;;;;;16.08;12.00;;;;;;;6.55;100.00;97061.88;4954814;28;20037;-66
2024/03/10 03:06:54;;;;;;;;;;;;;;;6.91;100.00;97118.50;4960489;28;20500;-68
2024/03/10 03:09:23;;;;;;;14.10;10.00;;;;;;;6.86;100.00;97123.31;4976895;28;20008;-64
2024/03/10 03:11:49;;;;;;;15.80;9.80;;;;;;;6.83;100.00;97116.69;4974600;28;20037;-67
2024/03/10 03:14:18;;;;;;;10.63;7.20;;;;;;;6.89;100.00;97146.25;4957978;28;20061;-65
2024/03/10 03:16:48;;;;;;;11.60;7.70;;;;;;;6.98;100.00;97134.19;4984963;28;20076;-65
2024/03/10 03:19:13;;;;;;;10.40;7.30;;;;;;;6.91;100.00;97121.06;4967388;28;20150;-65
2024/03/10 03:21:43;;;;;;;10.95;7.05;;;;;;;6.94;100.00;97113.00;4960518;28;20840;-67
2024/03/10 03:24:13;;;;;;;10.07;7.00;;;;;;;6.92;100.00;97092.50;4992290;28;20511;-62
2024/03/10 03:26:42;;;;;;;7.35;4.63;;;;;;;7.01;100.00;97090.75;4963601;28;20149;-65
2024/03/10 03:29:09;;;;;;;8.27;5.10;;;;;;;7.11;100.00;97078.47;4977754;28;20052;-62
2024/03/10 03:31:37;;;;;;;7.95;4.95;;;;;;;7.08;100.00;97078.81;4964079;28;20484;-63
2024/03/10 03:34:02;;;;;;;10.27;5.88;;;;;;;7.07;100.00;97079.75;4979992;28;20077;-66
2024/03/10 03:36:32;;;;;;;9.23;5.80;;;;;;;7.10;100.00;97073.44;4977420;28;20039;-65
2024/03/10 03:38:58;;;;;;;8.98;6.00;;;;;;;7.06;100.00;97074.75;4973848;28;20042;-64
2024/03/10 03:41:24;;;;;;;7.93;5.43;;;;;;;7.06;100.00;97067.81;4974924;28;20095;-69
2024/03/10 03:43:50;;;;;;;6.85;4.25;;;;;;;7.09;100.00;97082.19;4968418;28;20041;-63
2024/03/10 03:46:16;;;;;;;8.15;5.05;;;;;;;7.07;100.00;97081.53;4982333;28;20084;-66
2024/03/10 03:48:41;;;;;;;7.38;4.80;;;;;;;7.12;100.00;97074.13;4978385;28;20469;-63
2024/03/10 03:51:06;;;;;;;8.10;4.80;;;;;;;7.02;100.00;97070.88;4962760;28;20049;-64
2024/03/10 03:53:32;;;;;;;7.13;4.68;;;;;;;6.98;100.00;97048.91;4964638;28;20029;-64
2024/03/10 03:56:00;;;;;;;6.97;4.55;;;;;;;6.90;100.00;97034.22;4976708;28;20046;-63
2024/03/10 03:58:29;;;;;;;7.97;5.38;;;;;;;6.88;100.00;97041.28;5000191;28;20040;-63
2024/03/10 04:00:58;;;;;;;8.27;4.95;;;;;;;6.86;100.00;97038.88;4989374;28;20404;-64
2024/03/10 04:03:23;;;;;;;7.18;4.57;;;;;;;6.68;100.00;97000.25;4977134;28;20073;-64
2024/03/10 04:05:49;;;;;;;7.25;4.60;;;;;;;6.95;100.00;97041.47;4992677;28;20046;-63
2024/03/10 04:08:16;;;;;;;7.68;4.28;;;;;;;7.03;100.00;97038.91;4992951;28;20042;-66
2024/03/10 04:10:42;;;;;;;7.70;4.82;;;;;;;6.93;100.00;97050.16;4987935;28;20400;-63
2024/03/10 04:13:07;;;;;;;7.18;4.55;;;;;;;7.00;100.00;97039.22;4983235;28;20026;-63
2024/03/10 04:15:36;;;;;;;7.65;4.53;;;;;;;7.01;100.00;97040.81;4982192;28;20046;-63
2024/03/10 04:18:05;;;;;;;7.65;4.57;;;;;;;6.95;100.00;97042.25;4969324;28;20074;-63
2024/03/10 04:20:34;;;;;;;7.22;4.80;;;;;;;6.98;100.00;97036.78;4978222;28;20480;-62
2024/03/10 04:23:05;;;;;;;7.43;4.40;;;;;;;6.92;100.00;97038.22;4979558;28;20044;-63
2024/03/10 04:25:34;;;;;;;6.57;4.25;;;;;;;6.87;100.00;97039.69;4961637;28;20102;-63
2024/03/10 04:28:01;;;;;;;6.93;4.00;;;;;;;6.87;100.00;97031.94;4965206;28;20128;-65
2024/03/10 04:30:29;;;;;;;6.07;3.75;;;;;;;6.87;100.00;97024.97;4996085;28;20060;-62
2024/03/10 04:32:57;;;;;;;7.50;4.55;;;;;;;6.93;100.00;97045.00;4984092;28;20909;-65
2024/03/10 04:35:24;;;;;;;7.10;4.07;;;;;;;7.08;100.00;97049.53;4959236;28;20046;-61
2024/03/10 04:37:50;;;;;;;7.03;4.03;;;;;;;7.10;100.00;97050.19;4987089;28;20041;-62
2024/03/10 04:40:18;;;;;;;8.52;4.00;;;;;;;6.99;100.00;97046.16;4975396;28;20043;-63
2024/03/10 04:42:43;;;;;;;6.40;4.07;;;;;;;6.97;100.00;97047.28;4964729;28;20054;-63
2024/03/10 04:45:11;;;;;;;7.18;4.18;;;;;;;6.97;100.00;97052.44;4974578;28;20405;-65
2024/03/10 04:47:40;;;;;;;6.00;3.53;;;;;;;6.98;100.00;97043.72;4960046;28;20038;-63
2024/03/10 04:50:06;;;;;;;6.32;3.80;;;;;;;7.04;100.00;97043.88;4968163;28;20136;-61
2024/03/10 04:52:34;;;;;;;7.80;3.50;;;;;;;6.78;100.00;96994.94;4988689;28;20037;-65
2024/03/10 04:55:01;;;;;;;6.65;3.90;;;;;;;7.05;100.00;97039.53;4967928;28;20779;-66
2024/03/10 04:57:26;;;;;;;6.68;3.55;;;;;;;6.97;100.00;97024.81;4991175;28;20409;-61
2024/03/10 04:59:51;;;;;;;5.68;3.10;;;;;;;6.93;100.00;97020.94;4967574;28;20109;-64
2024/03/10 05:02:19;;;;;;;7.05;4.05;;;;;;;6.84;100.00;97014.16;4975790;28;20117;-61
2024/03/10 05:04:49;;;;;;;7.35;3.55;;;;;;;6.71;100.00;96986.22;4978828;28;20045;-62
2024/03/10 05:07:14;;;;;;;7.15;3.97;;;;;;;6.87;100.00;97011.25;4977911;28;20049;-61
2024/03/10 05:09:43;;;;;;;7.07;3.97;;;;;;;6.84;100.00;97009.78;4986949;28;20038;-65
2024/03/10 05:12:12;;;;;;;6.65;3.50;;;;;;;6.80;100.00;97005.13;4976417;28;20049;-61
2024/03/10 05:14:37;;;;;;;5.95;3.38;;;;;;;6.79;100.00;96999.16;4978703;28;20042;-61
2024/03/10 05:17:03;;;;;;;6.70;3.95;;;;;;;6.78;100.00;96992.34;4950957;28;20729;-62
2024/03/10 05:19:28;;;;;;;5.93;3.60;;;;;;;6.73;100.00;96999.78;4964631;28;20669;-63
2024/03/10 05:21:56;;;;;;;6.78;3.72;;;;;;;6.74;100.00;96994.44;4992611;28;20125;-65
2024/03/10 05:24:22;;;;;;;6.40;3.22;;;;;;;6.74;100.00;97004.78;4971017;28;20587;-62
2024/03/10 05:26:48;;;;;;;5.60;3.35;;;;;;;6.72;100.00;97005.91;4973264;28;20039;-64
2024/03/10 05:29:14;;;;;;;6.50;3.35;;;;;;;6.66;100.00;97001.38;4974838;28;20046;-62
2024/03/10 05:31:39;;;;;;;6.70;3.58;;;;;;;6.64;100.00;96998.16;5005432;28;20763;-59
2024/03/10 05:34:10;;;;;;;6.20;3.58;;;;;;;6.57;100.00;96990.25;4961702;28;20670;-63
2024/03/10 05:36:35;;;;;;;5.25;2.70;;;;;;;6.56;100.00;96988.63;4978759;28;20053;-63
2024/03/10 05:39:03;;;;;;;6.05;3.20;;;;;;;6.57;100.00;96967.00;4965804;28;20045;-60
2024/03/10 05:41:29;;;;;;;6.25;3.20;;;;;;;6.51;100.00;96976.16;4969156;28;20049;-61
2024/03/10 05:43:54;;;;;;;5.88;3.10;;;;;;;6.50;100.00;96968.59;4978804;28;20035;-61
2024/03/10 05:46:22;;;;;;;6.63;2.97;;;;;;;6.24;100.00;96935.97;4976330;28;20037;-59
2024/03/10 05:48:50;;;;;;;6.38;3.10;;;;;;;6.43;100.00;96965.84;4972722;28;20033;-60
2024/03/10 05:51:18;;;;;;;6.82;2.92;;;;;;;6.39;100.00;96966.31;4965326;28;20068;-59
2024/03/10 05:53:46;;;;;;;5.80;2.67;;;;;;;6.37;100.00;96968.25;4963697;28;20050;-62
2024/03/10 05:56:11;;;;;;;5.07;2.38;;;;;;;6.39;100.00;96974.03;4976566;28;20216;-61
2024/03/10 05:58:39;;;;;;;4.50;2.20;;;;;;;6.40;100.00;96971.31;4975175;28;20511;-60
2024/03/10 06:01:05;;;;;;;5.25;2.05;;;;;;;6.28;100.00;96951.91;4964019;28;20053;-61
2024/03/10 06:03:31;;;;;;;4.20;2.05;;;;;;;6.40;100.00;96947.28;4973943;28;20679;-63
2024/03/10 06:06:00;;;;;;;6.50;2.60;;;;;;;6.15;100.00;96913.66;4983597;28;20073;-62
2024/03/10 06:08:25;;;;;;;4.40;2.00;;;;;;;6.39;100.00;96951.63;4957884;28;20046;-63
2024/03/10 06:10:54;;;;;;;4.75;2.30;;;;;;;6.34;100.00;96953.88;4990599;28;20064;-61
2024/03/10 06:13:21;;;;;;;5.18;2.15;;;;;;;6.46;100.00;96956.97;4975390;28;20041;-64
2024/03/10 06:15:49;;;;;;;4.70;2.17;;;;;;;6.44;100.00;96941.63;4984002;28;20046;-62
2024/03/10 06:18:31;;;;;;;4.60;1.90;;;;;;;6.38;100.00;96934.53;4958218;28;20092;-66
2024/03/10 06:26:25;;;;;;;4.30;1.70;;;;;;;6.36;100.00;96944.19;4988630;28;20111;-65
2024/03/10 06:28:57;;;;;;;4.03;1.90;;;;;;;6.34;100.00;96936.63;4968919;28;20038;-63
2024/03/10 06:31:25;;;;;;;3.83;1.58;;;;;;;6.31;100.00;96936.91;4958238;28;20045;-65
2024/03/10 06:33:50;;;;;;;4.03;1.70;;;;;;;6.34;100.00;96946.13;4986139;28;20426;-64
2024/03/10 06:36:16;;;;;;;4.10;1.60;;;;;;;6.29;100.00;96935.47;4993098;28;20038;-63
2024/03/10 06:38:42;;;;;;;4.95;1.55;;;;;;;6.02;100.00;96882.34;4966323;28;20061;-66
2024/03/10 06:41:10;;;;;;;3.55;1.45;;;;;;;6.23;100.00;96918.84;4979799;28;20050;-63
2024/03/10 06:43:39;;;;;;;3.55;1.25;;;;;;;6.27;100.00;96914.97;4974720;28;20096;-66
2024/03/10 06:46:07;;;;;;;3.25;1.17;;;;;;;6.26;100.00;96928.03;4980992;28;20501;-66
2024/03/10 06:48:37;;;;;;;2.95;1.20;;;;;;;6.24;100.00;96922.22;4974597;28;20093;-65
2024/03/10 06:51:06;;;;;;;3.53;1.42;;;;;;;6.38;100.00;96908.72;4976220;28;20045;-64
2024/03/10 06:53:32;;;;;;;4.10;1.50;;;;;;;6.00;100.00;96863.66;4980869;28;20052;-64
2024/03/10 06:55:58;;;;;;;3.80;1.35;;;;;;;6.29;100.00;96902.72;4977492;28;20037;-62
2024/03/10 06:58:27;;;;;;;3.38;1.10;;;;;;;6.30;100.00;96916.47;4995067;28;20048;-63
2024/03/10 07:00:55;;;;;;;2.72;1.00;;;;;;;6.27;100.00;96909.81;4958213;28;20203;-63
2024/03/10 07:03:23;;;;;;;3.15;1.02;;;;;;;6.31;100.00;96916.28;4980184;28;20690;-65
2024/03/10 07:05:51;;;;;;;3.38;1.38;;;;;;;6.39;100.00;96923.25;4981477;28;20033;-63
2024/03/10 07:08:19;;;;;;;2.92;1.10;;;;;;;6.36;100.00;96915.81;4958675;28;20030;-61
2024/03/10 07:10:49;;;;;;;4.25;1.27;;;;;;;6.35;100.00;96907.25;4955050;28;20046;-61
2024/03/10 07:13:20;;;;;;;2.95;1.05;;;;;;;6.10;100.00;96870.28;4970739;28;20034;-65
2024/03/10 07:15:48;;;;;;;2.38;0.93;;;;;;;6.42;100.00;96899.66;4987773;28;20029;-62
2024/03/10 07:18:16;;;;;;;3.35;1.20;;;;;;;6.32;100.00;96899.81;4978689;28;20052;-66
2024/03/10 07:20:46;;;;;;;3.50;1.20;;;;;;;6.21;100.00;96900.13;4966177;28;20063;-63
2024/03/10 07:23:12;;;;;;;3.65;1.20;;;;;;;5.92;100.00;96847.16;4994183;28;20080;-61
2024/03/10 07:25:38;;;;;;;2.70;1.02;;;;;;;6.22;100.00;96899.16;4993153;28;20066;-64
2024/03/10 07:28:03;;;;;;;3.30;1.13;;;;;;;6.19;100.00;96893.50;4972403;28;20058;-64
2024/03/10 07:30:31;;;;;;;4.18;1.25;;;;;;;6.15;100.00;96880.13;4983134;28;20120;-65
2024/03/10 07:32:59;;;;;;;3.05;0.90;;;;;;;6.06;100.00;96888.81;4975499;28;20048;-62
2024/03/10 07:35:31;;;;;;;2.72;0.90;;;;;;;6.06;100.00;96875.91;4978860;28;20045;-64
2024/03/10 07:37:59;;;;;;;2.33;0.80;;;;;;;5.95;100.00;96859.78;4983235;28;20108;-62
2024/03/10 07:40:27;;;;;;;2.13;0.70;;;;;;;6.06;100.00;96878.47;4969355;28;20049;-65
2024/03/10 07:42:53;;;;;;;3.05;1.05;;;;;;;5.97;100.00;96872.53;4966941;28;20100;-67
2024/03/10 07:45:18;;;;;;;2.50;0.90;;;;;;;5.95;100.00;96884.72;4972297;28;20592;-62
2024/03/10 07:47:45;;;;;;;3.25;0.80;;;;;;;5.97;100.00;96891.38;4971493;28;20625;-66
2024/03/10 07:50:16;;;;;;;2.60;0.80;;;;;;;5.92;100.00;96883.28;4970110;28;20033;-65
2024/03/10 07:52:44;;;;;;;2.70;0.90;;;;;;;5.85;100.00;96876.31;4959476;28;20396;-61
2024/03/10 07:55:12;;;;;;;2.17;0.80;;;;;;;5.83;100.00;96879.06;4957200;28;20073;-62
2024/03/10 07:57:40;;;;;;;1.90;0.60;;;;;;;5.81;100.00;96862.94;4974857;28;20045;-59
2024/03/10 08:00:21;;;;;;;1.38;0.50;;;;;;;5.84;100.00;96867.78;4970220;28;20630;-61
2024/03/10 08:02:49;;;;;;;1.30;0.50;;;;;;;5.65;100.00;96855.16;4960594;28;20132;-60
2024/03/10 08:05:14;;;;;;;2.33;0.70;;;;;;;5.73;100.00;96852.56;4974073;28;20603;-62
2024/03/10 08:07:42;;;;;;;3.30;1.05;;;;;;;5.64;100.00;96856.09;4975767;28;20129;-60
2024/03/10 08:10:08;;;;;;;2.28;0.70;;;;;;;5.67;100.00;96858.38;4976716;28;20080;-62
2024/03/10 08:12:34;;;;;;;1.08;0.40;;;;;;;5.61;100.00;96854.66;4972849;28;20045;-60
2024/03/10 08:15:02;;;;;;;1.30;0.50;;;;;;;5.55;100.00;96832.09;4985347;28;20442;-60
2024/03/10 08:17:28;;;;;;;0.82;0.32;;;;;;;5.58;100.00;96850.63;4971916;28;20129;-61
2024/03/10 08:19:53;;;;;;;1.35;0.38;;;;;;;5.55;100.00;96844.97;4977411;28;20057;-61
2024/03/10 08:22:20;;;;;;;2.38;0.75;;;;;;;5.50;100.00;96840.28;4958260;28;20122;-61
2024/03/10 08:24:45;;;;;;;0.95;0.30;;;;;;;5.45;100.00;96831.41;4963310;28;20557;-61
2024/03/10 08:27:12;;;;;;;1.10;0.40;;;;;;;5.52;100.00;96832.38;4961105;28;20595;-61
2024/03/10 08:29:40;;;;;;;0.82;0.20;;;;;;;5.42;100.00;96824.78;4974945;28;20043;-62
2024/03/10 08:32:06;;;;;;;1.60;0.52;;;;;;;5.46;100.00;96825.25;4988735;28;20049;-61
2024/03/10 08:34:31;;;;;;;1.85;0.55;;;;;;;5.40;100.00;96803.50;4983117;28;20074;-62
2024/03/10 08:36:57;;;;;;;1.30;0.40;;;;;;;5.29;100.00;96807.16;4982096;28;20039;-63
2024/03/10 08:39:30;;;;;;;2.10;0.63;;;;;;;5.25;100.00;96798.13;4965249;28;20041;-61
2024/03/10 08:41:57;;;;;;;1.40;0.40;;;;;;;5.22;100.00;96780.44;4962484;28;20052;-61
2024/03/10 08:44:25;;;;;;;0.73;0.40;;;;;;;4.97;100.00;96736.53;4978633;28;20525;-63
2024/03/10 08:46:55;;;;;;;4.57;1.20;;;;;;;5.20;100.00;96757.38;4958869;28;20113;-61
2024/03/10 08:49:21;;;;;;;11.30;3.63;;;;;;;5.18;100.00;96761.91;4976849;28;20026;-62
2024/03/10 08:51:49;;;;;;;4.80;0.60;;;;;;;5.27;100.00;96754.19;4960900;28;20050;-61
2024/03/10 08:54:17;;;;;;;2.53;0.50;;;;;;;5.20;100.00;96734.19;4977535;28;20080;-62
2024/03/10 08:56:42;;;;;;;3.05;1.10;;;;;;;5.17;100.00;96715.66;4962636;28;20333;-61
2024/03/10 08:59:11;;;;;;;1.90;0.70;;;;;;;5.25;100.00;96731.13;4964989;28;20037;-61
2024/03/10 09:01:39;;;;;;;2.00;0.65;;;;;;;5.20;100.00;96726.47;4977400;28;20040;-62
2024/03/10 09:04:07;;;;;;;4.00;1.42;;;;;;;5.14;100.00;96734.81;4979730;28;20665;-61
2024/03/10 09:06:34;;;;;;;3.20;1.27;;;;;;;5.19;100.00;96706.81;4982250;28;20037;-61
2024/03/10 09:09:00;;;;;;;1.38;0.60;;;;;;;5.12;100.00;96710.97;4985992;28;20091;-62
2024/03/10 09:11:30;;;;;;;2.17;0.50;;;;;;;5.13;100.00;96704.88;4983524;28;20034;-60
2024/03/10 09:13:58;;;;;;;2.72;0.88;;;;;;;5.09;100.00;96687.28;4962868;28;20042;-62
2024/03/10 09:16:26;;;;;;;2.00;0.70;;;;;;;5.09;100.00;96672.66;4972192;28;20065;-60
2024/03/10 09:18:54;;;;;;;2.88;0.95;;;;;;;5.13;100.00;96680.84;4992424;28;20125;-63
2024/03/10 09:21:22;;;;;;;6.65;1.50;;;;;;;5.16;100.00;96665.88;4958691;28;20038;-60
2024/03/10 09:23:49;;;;;;;1.73;0.50;;;;;;;4.92;100.00;96640.88;4963460;28;20054;-60
2024/03/10 09:26:15;;;;;;;5.25;1.73;;;;;;;4.88;100.00;96620.75;4957936;28;20033;-62
2024/03/10 09:28:44;;;;;;;4.32;1.20;;;;;;;5.06;100.00;96638.69;4967473;28;20092;-61
2024/03/10 09:31:14;;;;;;;2.97;1.10;;;;;;;5.04;100.00;96632.84;4970014;28;20041;-61
2024/03/10 09:33:44;;;;;;;2.50;0.65;;;;;;;5.07;100.00;96619.66;4967795;28;20723;-63
2024/03/10 09:36:11;;;;;;;2.33;0.80;;;;;;;5.06;100.00;96625.78;4981571;28;20589;-62
2024/03/10 09:38:40;;;;;;;1.33;0.60;;;;;;;4.76;100.00;96574.72;4962849;28;20095;-60
2024/03/10 09:41:08;;;;;;;4.38;1.67;;;;;;;4.74;100.00;96560.38;4981952;28;20069;-61
2024/03/10 09:43:36;;;;;;;6.55;1.35;;;;;;;5.07;100.00;96601.63;4959043;28;20041;-62
2024/03/10 09:46:02;;;;;;;4.55;1.83;;;;;;;4.96;100.00;96607.91;4973116;28;20092;-62
2024/03/10 09:48:28;;;;;;;6.70;2.63;;;;;;;5.07;100.00;96612.72;4988625;28;20152;-62
2024/03/10 09:50:56;;;;;;;6.65;2.10;;;;;;;5.03;100.00;96608.88;4971115;28;20164;-60
2024/03/10 09:53:23;;;;;;;1.13;0.40;;;;;;;4.84;100.00;96557.66;4975258;28;20041;-60
2024/03/10 09:55:49;;;;;;;5.63;1.60;;;;;;;4.93;100.00;96591.00;4971582;28;20034;-62
2024/03/10 09:58:20;;;;;;;6.75;1.98;;;;;;;5.06;100.00;96616.28;4964759;28;20046;-63
2024/03/10 10:00:45;;;;;;;1.75;0.50;;;;;;;5.09;100.00;96607.44;4965306;28;20046;-63
2024/03/10 10:03:15;;;;;;;6.88;2.53;;;;;;;4.85;100.00;96582.44;4963735;28;20050;-60
2024/03/10 10:05:55;;;;;;;9.05;3.83;;;;;;;5.06;100.00;96605.19;4980840;28;20822;-61
2024/03/10 10:08:22;;;;;;;4.95;1.63;;;;;;;5.07;100.00;96611.94;4962897;28;20041;-61
2024/03/10 10:10:50;;;;;;;3.38;0.93;;;;;;;5.07;100.00;96586.97;4987207;28;20037;-62
2024/03/10 10:13:23;;;;;;;2.33;0.82;;;;;;;5.10;100.00;96593.59;4978327;28;20046;-61
2024/03/10 10:15:48;;;;;;;6.78;2.03;;;;;;;4.73;100.00;96527.88;4987112;28;20052;-62
2024/03/10 10:18:19;;;;;;;10.35;4.13;;;;;;;4.96;100.00;96584.72;4975584;28;20041;-62
2024/03/10 10:20:54;;;;;;;5.18;2.25;;;;;;;4.66;100.00;96524.34;4967771;28;20049;-61
2024/03/10 10:23:23;;;;;;;4.65;1.85;;;;;;;4.81;100.00;96549.28;4968354;28;20145;-61
2024/03/10 10:25:54;;;;;;;2.53;1.00;;;;;;;4.94;100.00;96572.00;4974835;28;20116;-61
2024/03/10 10:28:22;;;;;;;2.97;1.00;;;;;;;4.98;100.00;96577.63;4984643;28;20136;-63
2024/03/10 10:30:48;;;;;;;2.67;0.93;;;;;;;4.97;100.00;96584.56;4956251;28;20058;-61
2024/03/10 10:33:17;;;;;;;3.40;1.00;;;;;;;5.01;100.00;96597.94;4978004;28;20046;-59
2024/03/10 10:35:42;;;;;;;2.47;0.80;;;;;;;4.94;100.00;96592.59;4961964;28;20038;-59
2024/03/10 10:38:12;;;;;;;3.95;1.50;;;;;;;4.90;100.00;96596.47;4956315;28;20050;-60
2024/03/10 10:40:45;;;;;;;5.70;2.08;;;;;;;4.81;100.00;96597.41;4986588;28;20044;-60
2024/03/10 10:43:16;;;;;;;5.07;2.10;;;;;;;4.80;100.00;96590.63;4968089;28;20061;-60
2024/03/10 10:45:44;;;;;;;4.40;1.67;;;;;;;4.71;100.00;96576.94;4968595;28;20037;-61
2024/03/10 10:48:13;;;;;;;3.72;1.45;;;;;;;4.63;100.00;96567.41;4957756;28;20072;-61
2024/03/10 10:50:42;;;;;;;3.35;1.70;;;;;;;4.64;100.00;96594.00;4968253;28;20049;-61
2024/03/10 10:53:11;;;;;;;2.88;0.93;;;;;;;4.60;100.00;96565.19;4958166;28;20042;-61
2024/03/10 10:55:39;;;;;;;1.65;0.57;;;;;;;4.67;100.00;96562.75;4958227;28;20026;-61
2024/03/10 10:58:11;;;;;;;2.72;0.80;;;;;;;4.59;100.00;96555.84;4965184;28;20477;-61
2024/03/10 11:00:40;;;;;;;3.00;0.98;;;;;;;4.37;100.00;96513.47;4971707;28;20061;-60
2024/03/10 11:03:24;;;;;;;2.28;0.70;;;;;;;4.68;100.00;96548.16;4963326;28;20045;-61
2024/03/10 11:06:06;;;;;;;1.70;0.63;;;;;;;4.82;100.00;96552.69;4967069;28;20045;-61
2024/03/10 11:08:34;;;;;;;3.15;0.73;;;;;;;4.84;100.00;96543.03;4973990;28;20057;-59
2024/03/10 11:11:01;;;;;;;1.75;0.60;;;;;;;4.56;100.00;96507.25;4973481;28;20034;-62
2024/03/10 11:13:26;;;;;;;1.92;0.85;;;;;;;4.92;100.00;96544.78;4960664;28;20046;-62
2024/03/10 11:16:11;;;;;;;3.35;0.88;;;;;;;4.80;100.00;96546.84;4979061;28;20042;-61
2024/03/10 11:18:43;;;;;;;1.85;0.80;;;;;;;4.71;100.00;96537.50;4977723;28;20042;-60
2024/03/10 11:21:17;;;;;;;1.25;0.50;;;;;;;4.75;100.00;96529.31;4981419;28;20046;-61
2024/03/10 11:23:47;;;;;;;1.20;0.50;;;;;;;4.81;100.00;96544.13;4993314;28;20124;-60
2024/03/10 11:26:17;;;;;;;1.92;0.70;;;;;;;4.76;100.00;96524.97;4959289;28;20060;-62
2024/03/10 11:28:49;;;;;;;1.92;0.70;;;;;;;4.70;100.00;96500.66;4958348;28;20038;-60
2024/03/10 11:31:25;;;;;;;2.05;0.80;;;;;;;4.68;100.00;96512.91;4959872;28;20092;-61
2024/03/10 11:33:58;;;;;;;7.15;3.85;;;;;;;4.79;100.00;96532.38;5004964;28;20042;-60
2024/03/10 11:36:24;;;;;;;5.57;1.95;;;;;;;4.57;100.00;96502.91;4960494;28;20037;-60
2024/03/10 11:38:53;;;;;;;6.20;2.00;;;;;;;4.80;100.00;96557.16;4959826;28;20926;-63
2024/03/10 11:41:19;;;;;;;6.60;2.58;;;;;;;4.42;100.00;96507.88;4975888;28;20073;-63
2024/03/10 11:43:48;;;;;;;6.30;3.17;;;;;;;4.69;100.00;96542.84;4972386;28;20037;-63
2024/03/10 11:46:26;;;;;;;5.68;2.78;;;;;;;4.40;100.00;96500.31;4977865;28;20045;-63
2024/03/10 11:48:55;;;;;;;3.78;1.52;;;;;;;4.65;100.00;96549.25;4983622;28;20041;-62
2024/03/10 11:51:38;;;;;;;5.57;2.08;;;;;;;4.41;100.00;96499.31;4977074;28;20038;-63